Elkhart, IN

4:12 PM EST on December 10, 2016 (GMT -0500)
Martins Landing | | Change Station
Active Advisory: Winter Storm Warning

Elev 741 ft 41.69 °N, 85.95 °W | Updated 2 seconds ago

Overcast
Overcast
25.9 °F
Feels Like 26 °F
N
3.0
Wind Variable Wind from SSW

Today
High -- | Low -- °F
--% Chance of Precip.
Yesterday
High -- | Low -- °F
Precip. -- in
Pressure 30.42 in
Visibility 10.0 miles
Clouds Overcast 3300 ft
Windchill 26 °F
Dew Point 16 °F
Humidity 66%
Rainfall 0.00 in
Snow Depth Not available.
8:00 AM 5:13 PM
Waxing Gibbous, 86% visible
METAR KEKM 102050Z 26007KT 10SM OVC033 M04/M11 A3042 RMK AO2
Pressure 30.42 in
Visibility 10.0 miles
Clouds Overcast 3300 ft
Windchill 26 °F
Dew Point 16 °F
Humidity 66%
Rainfall 0.00 in
Snow Depth Not available.
8:00 AM 5:13 PM
Waxing Gibbous, 86% visible
METAR KEKM 102050Z 26007KT 10SM OVC033 M04/M11 A3042 RMK AO2

10-Day Weather Forecast

Almanac

Astronomy

Dec. 10, 2016 Rise Set
Actual Time
Civil Twilight
Nautical Twilight
Astronomical Twilight
Moon
Length of Visible Light
Length of Day
Tomorrow will be .
, % of the Moon is Illuminated

Today's Extremes

State Highs State Lows

Community

WunderPhotos

Upload Photos

1,956,663 photos uploaded!

WunderBlog® & News

Nearby

Air Quality

  Air Quality AQ Index Pollutant
Not available.

Snow Depth

Station Depth Elevation

Earthquake Activity

City Distance Mag. Time & Date
Minimum magnitude displayed is 2.5.

Coastal Water Temperatures

Place Temperature

Stations

Nearby Weather Stations

Station Location Temp. Windchill Dew Point Humidity Wind Precip. Elev Updated Type
                   

Watches & Warnings

Winter Storm Warning
Issued: 2:13 PM CST Dec. 10, 2016 – National Weather Service

... Winter Storm Warning remains in effect from 9 PM EST /8 PM
CST/ this evening to 4 am EST /3 am CST/ Monday...

Hazardous weather...

* storm total snowfall accumulations from tonight through Sunday
   night of 6 to 10 inches with locally higher amounts possible.

* Light snow is expected to overspread the area this evening...
   but will pick up in intensity during the overnight hours into
   Sunday morning. Snow will continue through Sunday evening.
   The period of heaviest snow is expected from overnight
   tonight through Sunday afternoon.

Impacts...

* roads will become snow covered and hazardous tonight into
   Sunday.

* Some blowing and drifting is possible on Sunday due to south
   winds gusting to around 20 mph.

* Reduced visibilities can be expected during the periods of
   heavier snow... especially late tonight through Sunday
   afternoon.

Precautionary/preparedness actions...

A Winter Storm Warning for heavy snow means severe winter weather
conditions are expected or occurring. Significant amounts of
snow are forecast that will make travel dangerous. Only travel in
an emergency. If you must travel... keep an extra flashlight...
food... and water in your vehicle in case of an emergency.